createdAt,value
2018-11-30T00:00:18.728Z,927.11
2018-11-30T00:01:18.727Z,927.11
2018-11-30T00:02:18.875Z,927.11
2018-11-30T00:03:18.766Z,927.07
2018-11-30T00:04:18.778Z,927.01
2018-11-30T00:05:18.799Z,927.01
2018-11-30T00:06:18.787Z,927.00
2018-11-30T00:07:18.936Z,927.04
2018-11-30T00:08:18.947Z,926.95
2018-11-30T00:09:18.841Z,927.03
2018-11-30T00:10:18.872Z,927.04
2018-11-30T00:11:18.883Z,927.00
2018-11-30T00:12:19.005Z,927.04
2018-11-30T00:13:18.910Z,927.05
2018-11-30T00:14:18.921Z,927.06
2018-11-30T00:15:19.044Z,927.08
2018-11-30T00:16:18.955Z,927.09
2018-11-30T00:17:19.071Z,927.12
2018-11-30T00:18:18.986Z,927.17
2018-11-30T00:19:19.053Z,927.17
2018-11-30T00:20:19.012Z,927.22
2018-11-30T00:21:19.025Z,927.24
2018-11-30T00:22:19.141Z,927.32
2018-11-30T00:23:19.058Z,927.28
2018-11-30T00:24:19.087Z,927.30
2018-11-30T00:25:19.079Z,927.32
2018-11-30T00:26:19.112Z,927.29
2018-11-30T00:27:19.223Z,927.29
2018-11-30T00:28:19.128Z,927.33
2018-11-30T00:29:19.136Z,927.30
2018-11-30T00:30:19.163Z,927.28
2018-11-30T00:31:19.179Z,927.28
2018-11-30T00:32:19.333Z,927.30
2018-11-30T00:33:19.205Z,927.29
2018-11-30T00:34:19.222Z,927.33
2018-11-30T00:35:19.234Z,927.32
2018-11-30T00:36:19.250Z,927.33
2018-11-30T00:37:19.361Z,927.36
2018-11-30T00:38:19.283Z,927.30
2018-11-30T00:39:19.296Z,927.36
2018-11-30T00:40:19.309Z,927.37
2018-11-30T00:41:19.329Z,927.37
2018-11-30T00:42:19.439Z,927.38
2018-11-30T00:43:19.357Z,927.37
2018-11-30T00:44:19.364Z,927.33
2018-11-30T00:45:19.390Z,927.36
2018-11-30T00:46:19.381Z,927.32
2018-11-30T00:47:19.451Z,927.29
2018-11-30T00:48:19.534Z,927.29
2018-11-30T00:49:19.455Z,927.31
2018-11-30T00:50:19.456Z,927.31
2018-11-30T00:51:19.467Z,927.30
2018-11-30T00:52:19.486Z,927.25
2018-11-30T00:53:19.602Z,927.25
2018-11-30T00:54:19.528Z,927.20
2018-11-30T00:55:19.538Z,927.20
2018-11-30T00:56:19.548Z,927.16
2018-11-30T00:57:19.566Z,927.18
2018-11-30T00:58:19.686Z,927.19
2018-11-30T00:59:19.603Z,927.19
2018-11-30T01:00:19.602Z,927.17
2018-11-30T01:01:19.628Z,927.19
2018-11-30T01:02:19.640Z,927.19
2018-11-30T01:03:19.689Z,927.18
2018-11-30T01:04:19.649Z,927.19
2018-11-30T01:05:19.700Z,927.21
2018-11-30T01:06:19.684Z,927.23
2018-11-30T01:07:19.713Z,927.27
2018-11-30T01:08:19.820Z,927.30
2018-11-30T01:09:19.753Z,927.24
2018-11-30T01:10:19.746Z,927.24
2018-11-30T01:11:19.787Z,927.21
2018-11-30T01:12:19.821Z,927.21
2018-11-30T01:13:19.899Z,927.21
2018-11-30T01:14:19.822Z,927.18
2018-11-30T01:15:19.838Z,927.17
2018-11-30T01:16:19.848Z,927.16
2018-11-30T01:17:19.858Z,927.18
2018-11-30T01:18:19.975Z,927.20
2018-11-30T01:19:19.875Z,927.20
2018-11-30T01:20:19.912Z,927.20
2018-11-30T01:21:22.399Z,927.16
2018-11-30T01:22:19.918Z,927.15
2018-11-30T01:23:20.057Z,927.14
2018-11-30T01:24:19.972Z,927.13
2018-11-30T01:25:20.046Z,927.15
2018-11-30T01:26:19.997Z,927.14
2018-11-30T01:27:20.010Z,927.16
2018-11-30T01:28:20.067Z,927.13
2018-11-30T01:29:20.049Z,927.12
2018-11-30T01:30:20.059Z,927.11
2018-11-30T01:31:20.092Z,927.12
2018-11-30T01:32:20.070Z,927.09
2018-11-30T01:33:20.252Z,927.13
2018-11-30T01:34:20.114Z,927.13
2018-11-30T01:35:20.134Z,927.12
2018-11-30T01:36:20.136Z,927.14
2018-11-30T01:37:20.160Z,927.10
2018-11-30T01:38:20.238Z,927.09
2018-11-30T01:39:20.187Z,927.13
2018-11-30T01:40:20.201Z,927.11
2018-11-30T01:41:20.207Z,927.13
2018-11-30T01:42:20.281Z,927.11
2018-11-30T01:43:20.386Z,927.10
2018-11-30T01:44:20.249Z,927.12
2018-11-30T01:45:20.283Z,927.09
2018-11-30T01:46:20.297Z,927.10
2018-11-30T01:47:20.305Z,927.11
2018-11-30T01:48:20.463Z,927.09
2018-11-30T01:49:20.349Z,927.09
2018-11-30T01:50:20.348Z,927.08
2018-11-30T01:51:20.395Z,927.09
2018-11-30T01:52:20.398Z,927.13
2018-11-30T01:53:20.490Z,927.09
2018-11-30T01:54:20.410Z,927.09
2018-11-30T01:55:20.430Z,927.11
2018-11-30T01:56:20.441Z,927.09
2018-11-30T01:57:20.452Z,927.07
2018-11-30T01:58:20.561Z,927.08
2018-11-30T01:59:20.476Z,927.06
2018-11-30T02:00:20.501Z,927.03
2018-11-30T02:01:20.558Z,927.01
2018-11-30T02:02:20.528Z,927.00
2018-11-30T02:03:20.649Z,927.01
2018-11-30T02:04:20.569Z,927.04
2018-11-30T02:05:20.587Z,927.00
2018-11-30T02:06:20.585Z,926.97
2018-11-30T02:07:20.586Z,927.00
2018-11-30T02:08:20.651Z,927.00
2018-11-30T02:09:20.726Z,926.96
2018-11-30T02:10:20.667Z,926.99
2018-11-30T02:11:20.671Z,926.93
2018-11-30T02:12:20.686Z,926.94
2018-11-30T02:13:20.702Z,926.95
2018-11-30T02:14:20.810Z,926.97
2018-11-30T02:15:20.715Z,926.99
2018-11-30T02:16:20.739Z,926.98
2018-11-30T02:17:20.747Z,927.01
2018-11-30T02:18:20.774Z,927.05
2018-11-30T02:19:20.883Z,927.02
2018-11-30T02:20:20.809Z,927.04
2018-11-30T02:21:20.824Z,927.02
2018-11-30T02:22:20.843Z,927.00
2018-11-30T02:23:20.838Z,927.02
2018-11-30T02:24:21.004Z,927.02
2018-11-30T02:25:20.922Z,926.99
2018-11-30T02:26:20.892Z,926.97
2018-11-30T02:27:20.911Z,926.95
2018-11-30T02:28:20.908Z,926.95
2018-11-30T02:29:21.051Z,926.91
2018-11-30T02:30:20.958Z,926.92
2018-11-30T02:31:20.970Z,926.91
2018-11-30T02:32:20.987Z,926.90
2018-11-30T02:33:20.985Z,926.88
2018-11-30T02:34:21.103Z,926.90
2018-11-30T02:35:21.024Z,926.89
2018-11-30T02:36:21.025Z,926.84
2018-11-30T02:37:21.059Z,926.81
2018-11-30T02:38:21.061Z,926.82
2018-11-30T02:39:21.184Z,926.80
2018-11-30T02:40:21.105Z,926.79
2018-11-30T02:41:21.107Z,926.81
2018-11-30T02:42:21.121Z,926.79
2018-11-30T02:43:21.145Z,926.75
2018-11-30T02:44:21.258Z,926.78
2018-11-30T02:45:21.177Z,926.75
2018-11-30T02:46:21.190Z,926.76
2018-11-30T02:47:21.196Z,926.72
2018-11-30T02:48:21.214Z,926.67
2018-11-30T02:49:21.336Z,926.66
2018-11-30T02:50:21.264Z,926.58
2018-11-30T02:51:21.341Z,926.58
2018-11-30T02:52:21.265Z,926.58
2018-11-30T02:53:21.315Z,926.57
2018-11-30T02:54:21.407Z,926.55
2018-11-30T02:55:21.329Z,926.53
2018-11-30T02:56:21.343Z,926.50
2018-11-30T02:57:21.365Z,926.46
2018-11-30T02:58:21.381Z,926.46
2018-11-30T02:59:21.437Z,926.42
2018-11-30T03:00:21.396Z,926.42
2018-11-30T03:01:21.409Z,926.36
2018-11-30T03:02:21.433Z,926.34
2018-11-30T03:03:21.444Z,926.34
2018-11-30T03:04:21.534Z,926.31
2018-11-30T03:05:21.494Z,926.28
2018-11-30T03:06:21.537Z,926.29
2018-11-30T03:07:21.519Z,926.25
2018-11-30T03:08:21.535Z,926.26
2018-11-30T03:09:21.636Z,926.22
2018-11-30T03:10:21.557Z,926.25
2018-11-30T03:11:21.567Z,926.21
2018-11-30T03:12:21.574Z,926.21
2018-11-30T03:13:21.594Z,926.19
2018-11-30T03:14:21.828Z,926.21
2018-11-30T03:15:21.613Z,926.18
2018-11-30T03:16:21.636Z,926.15
2018-11-30T03:17:21.665Z,926.13
2018-11-30T03:18:21.679Z,926.12
2018-11-30T03:19:21.852Z,926.14
2018-11-30T03:20:21.715Z,926.10
2018-11-30T03:21:21.722Z,926.08
2018-11-30T03:22:21.717Z,926.07
2018-11-30T03:23:21.746Z,926.04
2018-11-30T03:24:21.912Z,926.06
2018-11-30T03:25:21.784Z,926.00
2018-11-30T03:26:21.800Z,926.01
2018-11-30T03:27:21.807Z,926.02
2018-11-30T03:28:21.824Z,925.98
2018-11-30T03:29:22.057Z,925.97
2018-11-30T03:30:21.855Z,925.92
2018-11-30T03:31:21.872Z,925.89
2018-11-30T03:32:21.887Z,925.88
2018-11-30T03:33:21.901Z,925.89
2018-11-30T03:34:22.016Z,925.87
2018-11-30T03:35:21.952Z,925.83
2018-11-30T03:36:21.940Z,925.86
2018-11-30T03:37:21.997Z,925.90
2018-11-30T03:38:21.975Z,925.88
2018-11-30T03:39:22.036Z,925.87
2018-11-30T03:40:22.017Z,925.83
2018-11-30T03:41:22.137Z,925.79
2018-11-30T03:42:22.042Z,925.79
2018-11-30T03:43:22.052Z,925.78
2018-11-30T03:44:22.177Z,925.81
2018-11-30T03:45:22.074Z,925.79
2018-11-30T03:46:22.097Z,925.80
2018-11-30T03:47:22.118Z,925.81
2018-11-30T03:48:22.148Z,925.78
2018-11-30T03:49:22.315Z,925.82
2018-11-30T03:50:22.143Z,925.77
2018-11-30T03:51:22.171Z,925.81
2018-11-30T03:52:22.195Z,925.81
2018-11-30T03:53:22.213Z,925.77
2018-11-30T03:54:22.310Z,925.78
2018-11-30T03:55:22.263Z,925.78
2018-11-30T03:56:22.257Z,925.78
2018-11-30T03:57:22.248Z,925.78
2018-11-30T03:58:22.276Z,925.73
2018-11-30T03:59:22.464Z,925.70
2018-11-30T04:00:22.313Z,925.71
2018-11-30T04:01:22.346Z,925.74
2018-11-30T04:02:22.332Z,925.74
2018-11-30T04:03:22.386Z,925.75
2018-11-30T04:04:22.411Z,925.73
2018-11-30T04:05:22.392Z,925.76
2018-11-30T04:06:22.406Z,925.79
2018-11-30T04:07:22.531Z,925.76
2018-11-30T04:08:22.436Z,925.74
2018-11-30T04:09:22.714Z,925.76
2018-11-30T04:10:22.459Z,925.79
2018-11-30T04:11:22.527Z,925.71
2018-11-30T04:12:22.496Z,925.69
2018-11-30T04:13:22.512Z,925.70
2018-11-30T04:14:22.625Z,925.70
2018-11-30T04:15:22.546Z,925.67
2018-11-30T04:16:22.560Z,925.67
2018-11-30T04:17:22.563Z,925.71
2018-11-30T04:18:22.573Z,925.70
2018-11-30T04:19:22.698Z,925.67
2018-11-30T04:20:22.618Z,925.70
2018-11-30T04:21:22.627Z,925.71
2018-11-30T04:22:22.642Z,925.67
2018-11-30T04:23:22.657Z,925.64
2018-11-30T04:24:22.838Z,925.60
2018-11-30T04:25:22.692Z,925.56
2018-11-30T04:26:22.691Z,925.48
2018-11-30T04:27:22.716Z,925.39
2018-11-30T04:28:22.741Z,925.30
2018-11-30T04:29:22.849Z,925.30
2018-11-30T04:30:22.775Z,925.27
2018-11-30T04:31:22.772Z,925.29
2018-11-30T04:32:22.915Z,925.39
2018-11-30T04:33:22.816Z,925.38
2018-11-30T04:34:22.976Z,925.43
2018-11-30T04:35:22.845Z,925.43
2018-11-30T04:36:22.864Z,925.43
2018-11-30T04:37:22.986Z,925.40
2018-11-30T04:38:22.876Z,925.36
2018-11-30T04:39:23.335Z,925.38
2018-11-30T04:40:22.905Z,925.41
2018-11-30T04:41:22.916Z,925.40
2018-11-30T04:42:22.972Z,925.42
2018-11-30T04:43:22.958Z,925.42
2018-11-30T04:44:23.077Z,925.42
2018-11-30T04:45:23.103Z,925.47
2018-11-30T04:46:22.991Z,925.40
2018-11-30T04:47:23.024Z,925.35
2018-11-30T04:48:23.041Z,925.35
2018-11-30T04:49:23.096Z,925.34
2018-11-30T04:50:23.069Z,925.34
2018-11-30T04:51:23.099Z,925.38
2018-11-30T04:52:23.107Z,925.41
2018-11-30T04:53:23.109Z,925.41
2018-11-30T04:54:23.342Z,925.44
2018-11-30T04:55:23.137Z,925.44
2018-11-30T04:56:23.273Z,925.41
2018-11-30T04:57:23.149Z,925.39
2018-11-30T04:58:23.179Z,925.39
2018-11-30T04:59:23.299Z,925.45
2018-11-30T05:00:23.333Z,925.46
2018-11-30T05:01:23.234Z,925.44
2018-11-30T05:02:23.238Z,925.42
2018-11-30T05:03:23.309Z,925.39
2018-11-30T05:04:23.379Z,925.38
2018-11-30T05:05:23.283Z,925.37
2018-11-30T05:06:23.367Z,925.35
2018-11-30T05:07:23.329Z,925.40
2018-11-30T05:08:23.327Z,925.40
2018-11-30T05:09:23.451Z,925.39
2018-11-30T05:10:23.381Z,925.37
2018-11-30T05:11:23.374Z,925.35
2018-11-30T05:12:23.394Z,925.35
2018-11-30T05:13:23.412Z,925.32
2018-11-30T05:14:23.535Z,925.30
2018-11-30T05:15:23.430Z,925.31
2018-11-30T05:16:23.464Z,925.30
2018-11-30T05:17:23.519Z,925.30
2018-11-30T05:18:23.492Z,925.34
2018-11-30T05:19:23.555Z,925.31
2018-11-30T05:20:23.511Z,925.29
2018-11-30T05:21:23.530Z,925.28
2018-11-30T05:22:23.544Z,925.26
2018-11-30T05:23:23.551Z,925.26
2018-11-30T05:24:23.613Z,925.27
2018-11-30T05:25:23.577Z,925.24
2018-11-30T05:26:23.651Z,925.25
2018-11-30T05:27:23.737Z,925.28
2018-11-30T05:28:23.649Z,925.30
2018-11-30T05:29:23.760Z,925.27
2018-11-30T05:30:23.866Z,925.24
2018-11-30T05:31:23.693Z,925.25
2018-11-30T05:32:23.697Z,925.24
2018-11-30T05:33:23.719Z,925.24
2018-11-30T05:34:23.767Z,925.28
2018-11-30T05:35:23.741Z,925.26
2018-11-30T05:36:23.764Z,925.28
2018-11-30T05:37:23.764Z,925.27
2018-11-30T05:38:23.772Z,925.28
2018-11-30T05:39:23.850Z,925.27
2018-11-30T05:40:23.801Z,925.29
2018-11-30T05:41:23.836Z,925.30
2018-11-30T05:42:23.855Z,925.27
2018-11-30T05:43:23.888Z,925.31
2018-11-30T05:44:23.984Z,925.30
2018-11-30T05:45:23.898Z,925.28
2018-11-30T05:46:23.900Z,925.25
2018-11-30T05:47:23.921Z,925.30
2018-11-30T05:48:23.922Z,925.31
2018-11-30T05:49:23.934Z,925.35
2018-11-30T05:50:24.178Z,925.33
2018-11-30T05:51:24.027Z,925.35
2018-11-30T05:52:24.040Z,925.37
2018-11-30T05:53:24.841Z,925.42
2018-11-30T05:54:24.011Z,925.37
2018-11-30T05:55:24.226Z,925.36
2018-11-30T05:56:24.074Z,925.35
2018-11-30T05:57:24.081Z,925.38
2018-11-30T05:58:24.078Z,925.41
2018-11-30T05:59:24.094Z,925.43
2018-11-30T06:00:24.309Z,925.40
2018-11-30T06:01:24.131Z,925.40
2018-11-30T06:02:24.129Z,925.38
2018-11-30T06:03:24.146Z,925.39
2018-11-30T06:04:24.176Z,925.41
2018-11-30T06:05:24.288Z,925.39
2018-11-30T06:06:24.229Z,925.41
2018-11-30T06:07:24.235Z,925.46
2018-11-30T06:08:24.248Z,925.37
2018-11-30T06:09:24.255Z,925.38
2018-11-30T06:10:24.463Z,925.41
2018-11-30T06:11:24.289Z,925.38
2018-11-30T06:12:24.298Z,925.34
2018-11-30T06:13:24.308Z,925.34
2018-11-30T06:14:24.318Z,925.39
2018-11-30T06:15:24.442Z,925.38
2018-11-30T06:16:24.347Z,925.35
2018-11-30T06:17:24.374Z,925.39
2018-11-30T06:18:24.393Z,925.42
2018-11-30T06:19:24.409Z,925.34
2018-11-30T06:20:24.409Z,925.35
2018-11-30T06:21:24.616Z,925.36
2018-11-30T06:22:24.443Z,925.39
2018-11-30T06:23:24.446Z,925.36
2018-11-30T06:24:24.468Z,925.36
2018-11-30T06:25:24.491Z,925.33
2018-11-30T06:26:24.618Z,925.32
2018-11-30T06:27:24.520Z,925.31
2018-11-30T06:28:24.533Z,925.30
2018-11-30T06:29:24.544Z,925.31
2018-11-30T06:30:24.575Z,925.28
2018-11-30T06:31:24.666Z,925.29
2018-11-30T06:32:24.591Z,925.28
2018-11-30T06:33:24.612Z,925.27
2018-11-30T06:34:24.629Z,925.28
2018-11-30T06:35:24.654Z,925.27
2018-11-30T06:36:24.868Z,925.28
2018-11-30T06:37:24.680Z,925.26
2018-11-30T06:38:24.687Z,925.31
2018-11-30T06:39:27.620Z,925.28
2018-11-30T06:40:24.711Z,925.24
2018-11-30T06:41:24.817Z,925.32
2018-11-30T06:42:24.751Z,925.27
2018-11-30T06:43:24.757Z,925.29
2018-11-30T06:44:24.777Z,925.33
2018-11-30T06:45:24.778Z,925.31
2018-11-30T06:46:25.006Z,925.34
2018-11-30T06:47:24.941Z,925.34
2018-11-30T06:48:24.840Z,925.33
2018-11-30T06:49:24.861Z,925.38
2018-11-30T06:50:24.880Z,925.44
2018-11-30T06:51:25.220Z,925.39
2018-11-30T06:52:25.016Z,925.43
2018-11-30T06:53:24.899Z,925.41
2018-11-30T06:54:24.945Z,925.43
2018-11-30T06:55:24.935Z,925.41
2018-11-30T06:56:25.059Z,925.42
2018-11-30T06:57:24.988Z,925.42
2018-11-30T06:58:24.999Z,925.38
2018-11-30T06:59:24.995Z,925.38
2018-11-30T07:00:25.023Z,925.35
2018-11-30T07:01:25.136Z,925.36
2018-11-30T07:02:25.049Z,925.30
2018-11-30T07:03:25.051Z,925.29
2018-11-30T07:04:25.077Z,925.29
2018-11-30T07:05:25.081Z,925.29
2018-11-30T07:06:25.217Z,925.33
2018-11-30T07:07:25.112Z,925.35
2018-11-30T07:08:25.139Z,925.30
2018-11-30T07:09:25.142Z,925.28
2018-11-30T07:10:25.214Z,925.24
2018-11-30T07:11:25.287Z,925.19
2018-11-30T07:12:25.200Z,925.18
2018-11-30T07:13:25.260Z,925.14
2018-11-30T07:14:25.221Z,925.19
2018-11-30T07:15:25.296Z,925.24
2018-11-30T07:16:25.580Z,925.31
2018-11-30T07:17:25.392Z,925.39
2018-11-30T07:18:25.298Z,925.42
2018-11-30T07:19:25.306Z,925.42
2018-11-30T07:20:25.328Z,925.39
2018-11-30T07:21:25.322Z,925.38
2018-11-30T07:22:25.408Z,925.34
2018-11-30T07:23:25.484Z,925.32
2018-11-30T07:24:25.376Z,925.32
2018-11-30T07:25:25.421Z,925.28
2018-11-30T07:26:25.413Z,925.28
2018-11-30T07:27:25.644Z,925.30
2018-11-30T07:28:25.452Z,925.30
2018-11-30T07:29:25.460Z,925.36
2018-11-30T07:30:25.470Z,925.39
2018-11-30T07:31:25.483Z,925.36
2018-11-30T07:32:25.749Z,925.40
2018-11-30T07:33:25.508Z,925.38
2018-11-30T07:34:25.533Z,925.43
2018-11-30T07:35:25.534Z,925.39
2018-11-30T07:36:25.679Z,925.41
2018-11-30T07:37:25.771Z,925.40
2018-11-30T07:38:25.711Z,925.44
2018-11-30T07:39:25.609Z,925.43
2018-11-30T07:40:25.746Z,925.45
2018-11-30T07:41:25.624Z,925.45
2018-11-30T07:42:25.886Z,925.47
2018-11-30T07:43:25.653Z,925.49
2018-11-30T07:44:25.700Z,925.50
2018-11-30T07:45:25.713Z,925.53
2018-11-30T07:46:25.731Z,925.56
2018-11-30T07:47:25.776Z,925.57
2018-11-30T07:48:25.835Z,925.57
2018-11-30T07:49:25.753Z,925.54
2018-11-30T07:50:25.773Z,925.58
2018-11-30T07:51:25.905Z,925.60
2018-11-30T07:52:25.805Z,925.58
2018-11-30T07:53:25.876Z,925.57
2018-11-30T07:54:25.829Z,925.61
2018-11-30T07:55:25.866Z,925.60
2018-11-30T07:56:25.869Z,925.62
2018-11-30T07:57:25.879Z,925.63
2018-11-30T07:58:25.946Z,925.62
2018-11-30T07:59:25.947Z,925.64
2018-11-30T08:00:25.916Z,925.65
2018-11-30T08:01:25.940Z,925.64
2018-11-30T08:02:25.943Z,925.66
2018-11-30T08:03:26.057Z,925.69
2018-11-30T08:04:25.995Z,925.64
2018-11-30T08:05:25.984Z,925.65
2018-11-30T08:06:26.001Z,925.65
2018-11-30T08:07:26.036Z,925.67
2018-11-30T08:08:26.148Z,925.63
2018-11-30T08:09:26.068Z,925.64
2018-11-30T08:10:26.056Z,925.62
2018-11-30T08:11:26.098Z,925.62
2018-11-30T08:12:26.105Z,925.59
2018-11-30T08:13:26.235Z,925.60
2018-11-30T08:14:26.130Z,925.58
2018-11-30T08:15:26.141Z,925.55
2018-11-30T08:16:26.180Z,925.56
2018-11-30T08:17:26.173Z,925.55
2018-11-30T08:18:26.289Z,925.59
2018-11-30T08:19:26.216Z,925.59
2018-11-30T08:20:26.226Z,925.59
2018-11-30T08:21:26.262Z,925.59
2018-11-30T08:22:26.242Z,925.60
2018-11-30T08:23:26.433Z,925.63
2018-11-30T08:24:26.274Z,925.57
2018-11-30T08:25:26.342Z,925.60
2018-11-30T08:26:26.437Z,925.57
2018-11-30T08:27:26.380Z,925.59
2018-11-30T08:28:26.447Z,925.60
2018-11-30T08:29:26.355Z,925.57
2018-11-30T08:30:26.363Z,925.59
2018-11-30T08:31:26.380Z,925.56
2018-11-30T08:32:26.526Z,925.57
2018-11-30T08:33:26.616Z,925.57
2018-11-30T08:34:26.555Z,925.59
2018-11-30T08:35:26.468Z,925.60
2018-11-30T08:36:26.471Z,925.64
2018-11-30T08:37:26.471Z,925.62
2018-11-30T08:38:26.608Z,925.63
2018-11-30T08:39:26.527Z,925.65
2018-11-30T08:40:26.535Z,925.66
2018-11-30T08:41:26.552Z,925.71
2018-11-30T08:42:26.553Z,925.70
2018-11-30T08:43:26.675Z,925.68
2018-11-30T08:44:26.707Z,925.76
2018-11-30T08:45:26.683Z,925.69
2018-11-30T08:46:26.616Z,925.70
2018-11-30T08:47:26.643Z,925.72
2018-11-30T08:48:26.701Z,925.72
2018-11-30T08:49:26.727Z,925.74
2018-11-30T08:50:26.682Z,925.77
2018-11-30T08:51:26.706Z,925.74
2018-11-30T08:52:26.700Z,925.79
2018-11-30T08:53:26.733Z,925.77
2018-11-30T08:54:26.980Z,925.77
2018-11-30T08:55:26.772Z,925.75
2018-11-30T08:56:26.768Z,925.77
2018-11-30T08:57:26.780Z,925.74
2018-11-30T08:58:26.815Z,925.75
2018-11-30T08:59:27.035Z,925.76
2018-11-30T09:00:26.842Z,925.81
2018-11-30T09:01:26.863Z,925.82
2018-11-30T09:02:26.877Z,925.83
2018-11-30T09:03:26.886Z,925.84
2018-11-30T09:04:26.937Z,925.86
2018-11-30T09:05:26.918Z,925.90
2018-11-30T09:06:26.916Z,925.92
2018-11-30T09:07:26.947Z,925.89
2018-11-30T09:08:26.972Z,925.87
2018-11-30T09:09:27.074Z,925.89
2018-11-30T09:10:27.039Z,925.90
2018-11-30T09:11:27.046Z,925.94
2018-11-30T09:12:27.040Z,925.95
2018-11-30T09:13:27.088Z,925.97
2018-11-30T09:14:27.180Z,925.91
2018-11-30T09:15:27.113Z,925.97
2018-11-30T09:16:27.096Z,925.98
2018-11-30T09:17:27.093Z,925.98
2018-11-30T09:18:27.237Z,926.03
2018-11-30T09:19:27.248Z,926.02
2018-11-30T09:20:27.149Z,926.01
2018-11-30T09:21:27.165Z,926.01
2018-11-30T09:22:27.178Z,926.02
2018-11-30T09:23:27.187Z,926.03
2018-11-30T09:24:27.305Z,926.02
2018-11-30T09:25:27.348Z,926.00
2018-11-30T09:26:27.297Z,926.03
2018-11-30T09:27:27.282Z,925.98
2018-11-30T09:28:27.321Z,926.02
2018-11-30T09:29:27.410Z,926.05
2018-11-30T09:30:27.306Z,926.03
2018-11-30T09:31:27.347Z,926.08
2018-11-30T09:32:27.360Z,926.13
2018-11-30T09:33:27.402Z,926.10
2018-11-30T09:34:27.424Z,926.17
2018-11-30T09:35:27.414Z,926.16
2018-11-30T09:36:27.532Z,926.19
2018-11-30T09:37:27.430Z,926.16
2018-11-30T09:38:27.568Z,926.19
2018-11-30T09:39:27.573Z,926.19
2018-11-30T09:40:27.476Z,926.19
2018-11-30T09:41:27.487Z,926.19
2018-11-30T09:42:27.530Z,926.20
2018-11-30T09:43:27.651Z,926.20
2018-11-30T09:44:27.689Z,926.20
2018-11-30T09:45:27.681Z,926.28
2018-11-30T09:46:27.583Z,926.26
2018-11-30T09:47:27.625Z,926.26
2018-11-30T09:48:27.612Z,926.24
2018-11-30T09:49:27.855Z,926.24
2018-11-30T09:50:27.766Z,926.22
2018-11-30T09:51:27.657Z,926.22
2018-11-30T09:52:27.695Z,926.20
2018-11-30T09:53:27.820Z,926.19
2018-11-30T09:54:27.919Z,926.18
2018-11-30T09:55:27.729Z,926.20
2018-11-30T09:56:27.769Z,926.18
2018-11-30T09:57:27.779Z,926.28
2018-11-30T09:58:27.797Z,926.25
2018-11-30T09:59:28.000Z,926.28
2018-11-30T10:00:27.815Z,926.30
2018-11-30T10:01:27.847Z,926.24
2018-11-30T10:02:27.849Z,926.24
2018-11-30T10:03:27.878Z,926.29
2018-11-30T10:04:28.081Z,926.22
2018-11-30T10:05:27.899Z,926.26
2018-11-30T10:06:27.921Z,926.25
2018-11-30T10:07:28.072Z,926.26
2018-11-30T10:08:27.956Z,926.31
2018-11-30T10:09:28.049Z,926.36
2018-11-30T10:10:28.021Z,926.33
2018-11-30T10:11:28.011Z,926.33
2018-11-30T10:12:28.099Z,926.32
2018-11-30T10:13:28.066Z,926.32
2018-11-30T10:14:28.117Z,926.36
2018-11-30T10:15:28.098Z,926.34
2018-11-30T10:16:28.118Z,926.38
2018-11-30T10:17:28.135Z,926.40
2018-11-30T10:18:28.143Z,926.41
2018-11-30T10:19:28.245Z,926.41
2018-11-30T10:20:28.237Z,926.40
2018-11-30T10:21:28.231Z,926.41
2018-11-30T10:22:28.242Z,926.29
2018-11-30T10:23:28.292Z,926.29
2018-11-30T10:24:28.289Z,926.29
2018-11-30T10:25:28.387Z,926.31
2018-11-30T10:26:28.333Z,926.36
2018-11-30T10:27:28.340Z,926.34
2018-11-30T10:28:28.347Z,926.34
2018-11-30T10:29:28.381Z,926.40
2018-11-30T10:30:28.512Z,926.41
2018-11-30T10:31:28.480Z,926.41
2018-11-30T10:32:28.443Z,926.37
2018-11-30T10:33:28.457Z,926.41
2018-11-30T10:34:28.516Z,926.41
2018-11-30T10:35:28.604Z,926.46
2018-11-30T10:36:28.535Z,926.46
2018-11-30T10:37:28.570Z,926.41
2018-11-30T10:38:28.583Z,926.40
2018-11-30T10:39:28.585Z,926.47
2018-11-30T10:40:28.724Z,926.51
2018-11-30T10:41:28.626Z,926.55
2018-11-30T10:42:28.654Z,926.56
2018-11-30T10:43:28.678Z,926.49
2018-11-30T10:44:28.829Z,926.56
2018-11-30T10:45:28.837Z,926.52
2018-11-30T10:46:28.875Z,926.54
2018-11-30T10:47:28.793Z,926.57
2018-11-30T10:48:28.924Z,926.59
2018-11-30T10:49:28.880Z,926.60
2018-11-30T10:50:28.962Z,926.61
2018-11-30T10:51:28.901Z,926.61
2018-11-30T10:52:29.018Z,926.58
2018-11-30T10:53:28.906Z,926.60
2018-11-30T10:54:28.933Z,926.57
2018-11-30T10:55:30.877Z,926.58
2018-11-30T10:56:28.988Z,926.61
2018-11-30T10:57:29.039Z,926.58
2018-11-30T10:58:29.041Z,926.61
2018-11-30T10:59:29.074Z,926.63
2018-11-30T11:00:29.153Z,926.63
2018-11-30T11:01:29.109Z,926.56
2018-11-30T11:02:29.137Z,926.67
2018-11-30T11:03:29.286Z,926.66
2018-11-30T11:04:29.177Z,926.56
2018-11-30T11:05:29.326Z,926.63
2018-11-30T11:06:29.239Z,926.63
2018-11-30T11:07:29.267Z,926.64
2018-11-30T11:08:29.293Z,926.67
2018-11-30T11:09:29.314Z,926.61
2018-11-30T11:10:29.436Z,926.62
2018-11-30T11:11:29.410Z,926.66
2018-11-30T11:12:29.430Z,926.64
2018-11-30T11:13:29.402Z,926.67
2018-11-30T11:14:29.638Z,926.67
2018-11-30T11:15:29.478Z,926.65
2018-11-30T11:16:29.609Z,926.60
2018-11-30T11:17:29.525Z,926.61
2018-11-30T11:18:29.544Z,926.58
2018-11-30T11:19:29.791Z,926.57
2018-11-30T11:20:29.585Z,926.57
2018-11-30T11:21:29.629Z,926.55
2018-11-30T11:22:29.639Z,926.56
2018-11-30T11:23:29.669Z,926.59
2018-11-30T11:24:29.897Z,926.56
2018-11-30T11:25:29.714Z,926.60
2018-11-30T11:26:29.777Z,926.66
2018-11-30T11:27:29.805Z,926.66
2018-11-30T11:28:29.822Z,926.71
2018-11-30T11:29:29.886Z,926.73
2018-11-30T11:30:29.870Z,926.82
2018-11-30T11:31:29.900Z,927.09
2018-11-30T11:32:29.921Z,927.05
2018-11-30T11:33:29.961Z,926.81
2018-11-30T11:34:30.059Z,926.75
2018-11-30T11:35:29.984Z,926.67
2018-11-30T11:36:30.025Z,926.75
2018-11-30T11:37:30.052Z,926.82
2018-11-30T11:38:30.067Z,927.11
2018-11-30T11:39:30.209Z,927.36
2018-11-30T11:40:30.133Z,927.27
2018-11-30T11:41:30.154Z,926.99
2018-11-30T11:42:30.193Z,926.80
2018-11-30T11:43:30.258Z,926.64
2018-11-30T11:44:30.344Z,926.70
2018-11-30T11:45:30.263Z,926.54
2018-11-30T11:46:30.288Z,926.70
2018-11-30T11:47:30.317Z,926.80
2018-11-30T11:48:30.351Z,927.13
2018-11-30T11:49:30.472Z,927.36
2018-11-30T11:50:30.398Z,927.37
2018-11-30T11:51:30.425Z,927.50
2018-11-30T11:52:30.528Z,927.35
2018-11-30T11:53:30.489Z,927.02
2018-11-30T11:54:30.559Z,926.70
2018-11-30T11:55:30.541Z,926.67
2018-11-30T11:56:30.686Z,926.64
2018-11-30T11:57:30.584Z,926.67
2018-11-30T11:58:30.624Z,926.62
2018-11-30T11:59:30.742Z,926.62
2018-11-30T12:00:30.689Z,926.57
2018-11-30T12:01:30.707Z,926.50
2018-11-30T12:02:30.727Z,926.53
2018-11-30T12:03:30.767Z,926.52
2018-11-30T12:04:30.828Z,926.54
2018-11-30T12:05:30.823Z,926.56
2018-11-30T12:06:30.851Z,926.78
2018-11-30T12:07:30.889Z,927.21
2018-11-30T12:08:30.899Z,927.47
2018-11-30T12:09:31.039Z,927.45
2018-11-30T12:10:30.975Z,927.45
2018-11-30T12:11:31.030Z,927.47
2018-11-30T12:12:31.025Z,927.52
2018-11-30T12:13:31.055Z,927.53
2018-11-30T12:14:31.187Z,927.35
2018-11-30T12:15:31.117Z,926.90
2018-11-30T12:16:31.128Z,926.62
2018-11-30T12:17:31.182Z,926.55
2018-11-30T12:18:31.184Z,926.50
2018-11-30T12:19:31.319Z,926.50
2018-11-30T12:20:31.252Z,926.48
2018-11-30T12:21:31.282Z,926.65
2018-11-30T12:22:31.317Z,927.10
2018-11-30T12:23:31.382Z,927.41
2018-11-30T12:24:31.483Z,927.45
2018-11-30T12:25:31.417Z,927.48
2018-11-30T12:26:31.430Z,927.46
2018-11-30T12:27:31.455Z,927.48
2018-11-30T12:28:31.611Z,927.51